• Join FlightAware (Why Join?)
  • Login
  • US Flag 
06:56AM EDT


 

Airport Tracker/Info


-or-


 

Live Flight TrackerFlight Track Log ✈ MTN7303 ✈ 07-May-2013 ✈ KBWI - KEWR

Flight Track Log - Related Links

Times and Time Zones

All times are in EDT time to prevent confusion due to time zone crossing. See the MTN7303 flight status page for this flight to view local times or setup timezone preferences in your user account.

Time Position Orientation Groundspeed Altitude Reporting Facility
EDT Latitude Longitude Course Direction KTS MPH feet Rate Location/Type
11:28PM 39.1833 -76.6333 38° Northeast 98 113 900  Level Potomac TRACON
11:29PM 39.2000 -76.6167 38° Northeast 119 137 1,700 660 Climbing Potomac TRACON
11:30PM 39.2333 -76.5833 38° Northeast 118 136 2,400 660 Climbing Potomac TRACON
11:31PM 39.2500 -76.5500 57° Northeast 127 146 3,100 660 Climbing Potomac TRACON
11:32PM 39.2833 -76.5167 38° Northeast 128 147 3,900 720 Climbing Potomac TRACON
11:33PM 39.3000 -76.4833 57° Northeast 126 145 4,700 600 Climbing Potomac TRACON
11:34PM 39.3333 -76.4500 38° Northeast 140 161 5,100 180 Climbing Potomac TRACON
11:35PM 39.3500 -76.4167 57° Northeast 158 182 5,100  Level Potomac TRACON
11:36PM 39.3833 -76.3833 38° Northeast 159 183 5,100 -60 Level Potomac TRACON
11:38PM 39.4667 -76.2833 43° Northeast 153 176 5,000 -60 Descending Philadelphia TRACON
11:39PM 39.4833 -76.2500 57° Northeast 151 174 5,000  Level Philadelphia TRACON
11:40PM 39.5167 -76.2000 49° Northeast 149 171 5,000  Level Philadelphia TRACON
11:41PM 39.5500 -76.1667 38° Northeast 149 171 5,000  Level Philadelphia TRACON
11:42PM 39.5833 -76.1333 38° Northeast 147 169 5,000  Level Philadelphia TRACON
11:43PM 39.6000 -76.0833 67° East 148 170 5,000  Level Philadelphia TRACON
11:44PM 39.6333 -76.0500 38° Northeast 172 198 5,000  Level Philadelphia TRACON
11:45PM 39.6667 -76.0000 49° Northeast 167 192 5,000  Level Philadelphia TRACON
11:46PM 39.7000 -75.9667 38° Northeast 165 190 5,000  Level Philadelphia TRACON
11:47PM 39.7333 -75.9167 49° Northeast 161 185 5,000  Level Philadelphia TRACON
11:48PM 39.7667 -75.8833 38° Northeast 158 182 5,000  Level Philadelphia TRACON
11:49PM 39.8000 -75.8333 49° Northeast 162 186 5,000  Level Philadelphia TRACON
11:50PM 39.8333 -75.8000 38° Northeast 162 186 5,000  Level Philadelphia TRACON
11:51PM 39.8500 -75.7500 67° East 161 185 5,000  Level Philadelphia TRACON
11:52PM 39.8833 -75.7167 37° Northeast 162 186 5,000  Level Philadelphia TRACON
11:53PM 39.9167 -75.6667 49° Northeast 160 184 5,000  Level Philadelphia TRACON
11:54PM 39.9333 -75.6167 66° East 155 178 5,000  Level Philadelphia TRACON
11:55PM 39.9667 -75.5667 49° Northeast 157 181 5,000  Level Philadelphia TRACON
11:56PM 39.9833 -75.5167 66° East 156 180 5,000  Level Philadelphia TRACON
11:57PM 40.0000 -75.4833 57° Northeast 153 176 5,000  Level Philadelphia TRACON
11:58PM 40.0333 -75.4333 49° Northeast 153 176 5,000  Level Philadelphia TRACON
11:59PM 40.0500 -75.3833 66° East 155 178 5,000  Level Philadelphia TRACON
12:00AM 40.0667 -75.3333 66° East 154 177 5,000  Level Philadelphia TRACON
12:01AM 40.0833 -75.2833 66° East 152 175 5,000  Level Philadelphia TRACON
12:02AM 40.1167 -75.2333 49° Northeast 157 181 5,000  Level Philadelphia TRACON
12:03AM 40.1333 -75.1833 66° East 156 180 5,000  Level Philadelphia TRACON
12:05AM 40.1667 -75.1167 57° Northeast 158 182 5,100  Climbing New York TRACON
12:06AM 40.1833 -75.0667 66° East 154 177 5,100  Level New York TRACON
12:07AM 40.2000 -75.0333 57° Northeast 158 182 5,100  Level New York TRACON
12:08AM 40.2333 -74.9667 57° Northeast 154 177 5,100  Level New York TRACON
12:09AM 40.2500 -74.9167 66° East 157 181 5,100  Level New York TRACON
12:10AM 40.2667 -74.8667 66° East 156 180 5,100  Level New York TRACON
12:11AM 40.3000 -74.8167 49° Northeast 157 181 5,100  Level New York TRACON
12:12AM 40.3167 -74.7667 66° East 158 182 5,100  Level New York TRACON
12:13AM 40.3333 -74.7167 66° East 158 182 5,100 -360 Level New York TRACON
12:14AM 40.3500 -74.6667 66° East 172 198 4,500 -660 Descending New York TRACON
12:15AM 40.3833 -74.6167 49° Northeast 170 196 3,800 -780 Descending New York TRACON
12:16AM 40.4000 -74.5667 66° East 169 194 3,100 -360 Descending New York TRACON
12:17AM 40.4333 -74.5000 57° Northeast 152 175 3,100  Level New York TRACON
12:18AM 40.4500 -74.4500 66° East 152 175 3,100  Level New York TRACON
12:19AM 40.4667 -74.4000 66° East 152 175 3,100 -240 Level New York TRACON
12:20AM 40.4833 -74.3667 57° Northeast 163 188 2,700 -540 Descending New York TRACON
12:21AM 40.5000 -74.3000 72° East 168 193 2,100 -300 Descending New York TRACON
12:22AM 40.5333 -74.2667 37° Northeast 164 189 2,100  Level New York TRACON
12:23AM 40.5833 -74.2500 14° North 164 189 2,100 -360 Level New York TRACON
12:24AM 40.6167 -74.2167 37° Northeast 172 198 1,400 -840 Descending New York TRACON
12:25AM 40.6667 -74.1833 27° Northeast 169 194 500 -900 Descending New York TRACON
12:27AM 40.6833 -74.1667 52° Northeast  Level FlightAware Approximate
12:34AM 40.6925 -74.1687 52° Northeast  Level Estimated